createdAt,value
2019-03-09T00:01:08.879Z,9.99
2019-03-09T00:03:35.461Z,9.98
2019-03-09T00:06:02.040Z,10.00
2019-03-09T00:08:28.638Z,10.00
2019-03-09T00:10:55.271Z,9.99
2019-03-09T00:13:21.844Z,10.01
2019-03-09T00:15:48.413Z,10.03
2019-03-09T00:18:15.022Z,10.03
2019-03-09T00:20:41.649Z,10.03
2019-03-09T00:23:08.221Z,10.04
2019-03-09T00:25:35.232Z,10.03
2019-03-09T00:28:01.823Z,10.01
2019-03-09T00:30:28.431Z,10.00
2019-03-09T00:32:55.001Z,9.98
2019-03-09T00:35:21.682Z,9.97
2019-03-09T00:37:48.321Z,9.95
2019-03-09T00:40:14.899Z,9.92
2019-03-09T00:42:42.142Z,9.89
2019-03-09T00:45:08.823Z,9.84
2019-03-09T00:47:35.444Z,9.81
2019-03-09T00:50:02.026Z,9.76
2019-03-09T00:52:28.705Z,9.71
2019-03-09T00:54:55.270Z,9.66
2019-03-09T00:57:22.071Z,9.63
2019-03-09T00:59:48.699Z,9.60
2019-03-09T01:02:15.314Z,9.58
2019-03-09T01:04:41.889Z,9.56
2019-03-09T01:07:08.496Z,9.57
2019-03-09T01:09:35.079Z,9.56
2019-03-09T01:12:01.693Z,9.56
2019-03-09T01:14:28.259Z,9.56
2019-03-09T01:16:54.865Z,9.54
2019-03-09T01:19:21.471Z,9.52
2019-03-09T01:21:48.071Z,9.49
2019-03-09T01:24:14.649Z,9.48
2019-03-09T01:26:41.258Z,9.45
2019-03-09T01:29:07.841Z,9.41
2019-03-09T01:31:34.427Z,9.37
2019-03-09T01:34:01.002Z,9.34
2019-03-09T01:36:27.611Z,9.30
2019-03-09T01:38:54.189Z,9.27
2019-03-09T01:41:20.796Z,9.25
2019-03-09T01:43:47.374Z,9.24
2019-03-09T01:46:14.069Z,9.24
2019-03-09T01:48:40.645Z,9.22
2019-03-09T01:51:07.256Z,9.20
2019-03-09T01:53:36.897Z,9.17
2019-03-09T01:56:02.163Z,9.14
2019-03-09T01:58:28.742Z,9.12
2019-03-09T02:00:55.321Z,9.11
2019-03-09T02:03:21.896Z,9.08
2019-03-09T02:05:48.479Z,9.03
2019-03-09T02:08:15.051Z,9.02
2019-03-09T02:10:41.634Z,8.98
2019-03-09T02:13:08.202Z,8.95
2019-03-09T02:15:34.791Z,8.92
2019-03-09T02:18:01.372Z,8.89
2019-03-09T02:20:27.931Z,8.86
2019-03-09T02:22:54.562Z,8.84
2019-03-09T02:25:21.138Z,8.81
2019-03-09T02:27:47.715Z,8.79
2019-03-09T02:30:14.315Z,8.76
2019-03-09T02:32:40.952Z,8.76
2019-03-09T02:35:07.538Z,8.78
2019-03-09T02:37:34.120Z,8.82
2019-03-09T02:40:00.718Z,8.84
2019-03-09T02:42:27.345Z,8.86
2019-03-09T02:44:53.925Z,8.89
2019-03-09T02:47:20.504Z,8.90
2019-03-09T02:49:47.074Z,8.91
2019-03-09T02:52:13.646Z,8.93
2019-03-09T02:54:40.224Z,8.93
2019-03-09T02:57:06.803Z,8.92
2019-03-09T02:59:33.383Z,8.93
2019-03-09T03:01:59.952Z,8.90
2019-03-09T03:04:26.541Z,8.89
2019-03-09T03:06:53.144Z,8.86
2019-03-09T03:09:19.730Z,8.85
2019-03-09T03:11:46.341Z,8.83
2019-03-09T03:14:12.908Z,8.79
2019-03-09T03:16:39.557Z,8.77
2019-03-09T03:19:06.137Z,8.74
2019-03-09T03:21:32.714Z,8.70
2019-03-09T03:23:59.284Z,8.70
2019-03-09T03:26:25.871Z,8.67
2019-03-09T03:28:52.451Z,8.65
2019-03-09T03:31:19.029Z,8.61
2019-03-09T03:33:45.599Z,8.58
2019-03-09T03:36:12.176Z,8.53
2019-03-09T03:38:38.758Z,8.49
2019-03-09T03:41:05.333Z,8.45
2019-03-09T03:43:31.953Z,8.40
2019-03-09T03:45:58.591Z,8.37
2019-03-09T03:48:25.238Z,8.32
2019-03-09T03:50:51.815Z,8.26
2019-03-09T03:53:18.431Z,8.22
2019-03-09T03:55:45.021Z,8.19
2019-03-09T03:58:11.705Z,8.14
2019-03-09T04:00:38.272Z,8.10
2019-03-09T04:03:04.878Z,8.06
2019-03-09T04:05:31.473Z,8.03
2019-03-09T04:07:58.147Z,8.01
2019-03-09T04:10:24.715Z,7.98
2019-03-09T04:12:51.321Z,7.95
2019-03-09T04:15:17.902Z,7.93
2019-03-09T04:17:44.490Z,7.93
2019-03-09T04:20:11.145Z,7.91
2019-03-09T04:22:37.778Z,7.89
2019-03-09T04:25:04.404Z,7.86
2019-03-09T04:27:31.041Z,7.85
2019-03-09T04:29:57.616Z,7.82
2019-03-09T04:32:24.230Z,7.80
2019-03-09T04:34:50.797Z,7.79
2019-03-09T04:37:17.410Z,7.76
2019-03-09T04:39:43.993Z,7.73
2019-03-09T04:42:10.558Z,7.71
2019-03-09T04:44:37.131Z,7.69
2019-03-09T04:47:03.706Z,7.68
2019-03-09T04:49:30.289Z,7.65
2019-03-09T04:51:56.850Z,7.63
2019-03-09T04:54:23.420Z,7.60
2019-03-09T04:56:50.080Z,7.58
2019-03-09T04:59:16.656Z,7.56
2019-03-09T05:01:43.223Z,7.55
2019-03-09T05:04:09.800Z,7.54
2019-03-09T05:06:36.425Z,7.52
2019-03-09T05:09:03.001Z,7.51
2019-03-09T05:11:29.646Z,7.49
2019-03-09T05:13:56.232Z,7.49
2019-03-09T05:16:22.800Z,7.49
2019-03-09T05:18:49.377Z,7.50
2019-03-09T05:21:15.944Z,7.51
2019-03-09T05:23:42.522Z,7.55
2019-03-09T05:26:09.094Z,7.57
2019-03-09T05:28:35.674Z,7.60
2019-03-09T05:31:02.246Z,7.63
2019-03-09T05:33:28.839Z,7.65
2019-03-09T05:35:55.405Z,7.71
2019-03-09T05:38:21.968Z,7.77
2019-03-09T05:40:48.541Z,7.80
2019-03-09T05:43:15.125Z,7.84
2019-03-09T05:45:41.696Z,7.90
2019-03-09T05:48:08.271Z,7.96
2019-03-09T05:50:34.851Z,7.98
2019-03-09T05:53:01.457Z,7.96
2019-03-09T05:55:28.023Z,7.95
2019-03-09T05:57:54.601Z,7.91
2019-03-09T06:00:21.169Z,7.86
2019-03-09T06:02:47.762Z,7.81
2019-03-09T06:05:14.324Z,7.75
2019-03-09T06:07:40.897Z,7.71
2019-03-09T06:10:07.483Z,7.70
2019-03-09T06:12:34.062Z,7.68
2019-03-09T06:15:00.669Z,7.66
2019-03-09T06:17:27.281Z,7.66
2019-03-09T06:19:53.893Z,7.66
2019-03-09T06:22:20.470Z,7.68
2019-03-09T06:24:47.070Z,7.73
2019-03-09T06:27:13.640Z,7.77
2019-03-09T06:29:40.373Z,7.83
2019-03-09T06:32:06.934Z,7.92
2019-03-09T06:34:33.585Z,7.99
2019-03-09T06:37:00.203Z,8.10
2019-03-09T06:39:26.801Z,8.21
2019-03-09T06:41:53.374Z,8.31
2019-03-09T06:44:19.997Z,8.46
2019-03-09T06:46:46.591Z,8.61
2019-03-09T06:49:13.199Z,8.77
2019-03-09T06:51:39.765Z,8.95
2019-03-09T06:54:06.368Z,9.12
2019-03-09T06:56:32.979Z,9.30
2019-03-09T06:58:59.557Z,9.45
2019-03-09T07:01:26.145Z,9.62
2019-03-09T07:03:52.738Z,9.77
2019-03-09T07:06:19.298Z,9.92
2019-03-09T07:08:45.969Z,10.03
2019-03-09T07:11:12.595Z,10.10
2019-03-09T07:13:39.172Z,10.14
2019-03-09T07:16:05.770Z,10.11
2019-03-09T07:18:32.352Z,10.07
2019-03-09T07:20:58.924Z,10.07
2019-03-09T07:23:25.501Z,10.09
2019-03-09T07:25:52.103Z,10.13
2019-03-09T07:28:18.725Z,10.19
2019-03-09T07:30:45.314Z,10.30
2019-03-09T07:33:11.879Z,10.40
2019-03-09T07:35:38.460Z,10.54
2019-03-09T07:38:05.039Z,10.69
2019-03-09T07:40:31.658Z,10.84
2019-03-09T07:42:58.250Z,10.97
2019-03-09T07:45:24.873Z,11.15
2019-03-09T07:47:51.505Z,11.32
2019-03-09T07:50:18.114Z,11.47
2019-03-09T07:52:44.718Z,11.59
2019-03-09T07:55:11.379Z,11.71
2019-03-09T07:57:37.950Z,11.81
2019-03-09T08:00:04.545Z,11.87
2019-03-09T08:02:31.154Z,11.98
2019-03-09T08:04:57.793Z,12.08
2019-03-09T08:07:24.368Z,12.20
2019-03-09T08:09:50.941Z,12.36
2019-03-09T08:12:17.526Z,12.53
2019-03-09T08:14:44.092Z,12.72
2019-03-09T08:17:10.660Z,12.91
2019-03-09T08:19:37.250Z,13.10
2019-03-09T08:22:03.831Z,13.20
2019-03-09T08:24:30.396Z,13.17
2019-03-09T08:26:56.978Z,13.07
2019-03-09T08:29:23.627Z,12.95
2019-03-09T08:31:50.203Z,12.87
2019-03-09T08:34:16.768Z,12.81
2019-03-09T08:36:43.352Z,12.77
2019-03-09T08:39:09.918Z,12.72
2019-03-09T08:41:36.556Z,12.73
2019-03-09T08:44:03.151Z,12.77
2019-03-09T08:46:29.892Z,12.88
2019-03-09T08:48:56.477Z,13.14
2019-03-09T08:51:23.075Z,13.42
2019-03-09T08:53:49.712Z,13.74
2019-03-09T08:56:16.291Z,14.02
2019-03-09T08:58:42.911Z,14.29
2019-03-09T09:01:09.572Z,14.39
2019-03-09T09:03:36.188Z,14.47
2019-03-09T09:06:02.760Z,14.37
2019-03-09T09:08:29.378Z,14.31
2019-03-09T09:10:55.965Z,14.28
2019-03-09T09:13:22.536Z,14.37
2019-03-09T09:15:49.172Z,14.54
2019-03-09T09:18:15.746Z,14.78
2019-03-09T09:20:42.310Z,15.11
2019-03-09T09:23:08.900Z,15.36
2019-03-09T09:25:35.508Z,15.43
2019-03-09T09:28:02.083Z,15.35
2019-03-09T09:30:28.650Z,15.13
2019-03-09T09:32:55.228Z,15.00
2019-03-09T09:35:21.806Z,14.87
2019-03-09T09:37:48.409Z,14.83
2019-03-09T09:40:14.982Z,14.85
2019-03-09T09:42:41.562Z,14.94
2019-03-09T09:45:08.138Z,15.10
2019-03-09T09:47:34.752Z,15.25
2019-03-09T09:50:01.355Z,15.34
2019-03-09T09:52:27.997Z,15.41
2019-03-09T09:54:54.569Z,15.52
2019-03-09T09:57:21.180Z,15.64
2019-03-09T09:59:47.757Z,15.55
2019-03-09T10:02:14.369Z,15.58
2019-03-09T10:04:40.939Z,15.63
2019-03-09T10:07:07.544Z,15.74
2019-03-09T10:09:34.115Z,15.83
2019-03-09T10:12:00.722Z,15.94
2019-03-09T10:14:27.295Z,16.08
2019-03-09T10:16:53.923Z,16.21
2019-03-09T10:19:20.494Z,16.42
2019-03-09T10:21:47.116Z,16.69
2019-03-09T10:24:13.772Z,16.91
2019-03-09T10:26:40.388Z,17.03
2019-03-09T10:29:06.961Z,17.25
2019-03-09T10:31:33.551Z,17.42
2019-03-09T10:34:00.453Z,17.56
2019-03-09T10:36:27.170Z,17.70
2019-03-09T10:38:53.758Z,17.97
2019-03-09T10:41:20.378Z,18.22
2019-03-09T10:43:46.963Z,18.60
2019-03-09T10:46:13.558Z,18.83
2019-03-09T10:48:40.166Z,18.84
2019-03-09T10:51:06.771Z,18.68
2019-03-09T10:53:33.356Z,18.46
2019-03-09T10:55:59.973Z,18.38
2019-03-09T10:58:26.586Z,18.47
2019-03-09T11:00:53.205Z,18.81
2019-03-09T11:03:19.775Z,19.16
2019-03-09T11:05:46.379Z,19.00
2019-03-09T11:08:12.946Z,18.71
2019-03-09T11:10:39.519Z,18.21
2019-03-09T11:13:06.114Z,17.64
2019-03-09T11:15:32.685Z,17.14
2019-03-09T11:17:59.257Z,16.60
2019-03-09T11:20:25.835Z,16.41
2019-03-09T11:22:52.426Z,16.33
2019-03-09T11:25:18.993Z,16.38
2019-03-09T11:27:45.607Z,16.28
2019-03-09T11:30:12.183Z,16.16
2019-03-09T11:32:38.778Z,15.95
2019-03-09T11:35:05.349Z,16.04
2019-03-09T11:37:31.932Z,16.20
2019-03-09T11:39:58.514Z,16.48
2019-03-09T11:42:25.204Z,16.67
2019-03-09T11:44:51.821Z,16.65
2019-03-09T11:47:18.435Z,16.67
2019-03-09T11:49:45.001Z,16.56
2019-03-09T11:52:19.642Z,16.31
2019-03-09T11:54:39.896Z,16.07
2019-03-09T11:57:06.498Z,15.78
2019-03-09T11:59:33.080Z,15.51
2019-03-09T12:01:59.680Z,15.30
2019-03-09T12:04:26.260Z,15.02
2019-03-09T12:06:52.871Z,14.77
2019-03-09T12:09:19.448Z,14.61
2019-03-09T12:11:46.152Z,14.50
2019-03-09T12:14:12.720Z,14.41
2019-03-09T12:16:39.322Z,14.24
2019-03-09T12:19:05.902Z,14.17
2019-03-09T12:21:32.468Z,14.08
2019-03-09T12:23:59.054Z,14.07
2019-03-09T12:26:25.633Z,14.04
2019-03-09T12:28:52.206Z,14.02
2019-03-09T12:31:18.775Z,13.98
2019-03-09T12:33:45.358Z,13.91
2019-03-09T12:36:11.930Z,13.83
2019-03-09T12:38:38.509Z,13.76
2019-03-09T12:41:05.110Z,13.76
2019-03-09T12:43:31.703Z,13.72
2019-03-09T12:45:58.274Z,13.70
2019-03-09T12:48:24.924Z,13.72
2019-03-09T12:50:51.504Z,13.69
2019-03-09T12:53:18.116Z,13.62
2019-03-09T12:55:44.694Z,13.53
2019-03-09T12:58:11.314Z,13.43
2019-03-09T13:00:38.910Z,13.32
2019-03-09T13:03:05.487Z,13.10
2019-03-09T13:05:32.097Z,12.97
2019-03-09T13:07:58.682Z,12.79
2019-03-09T13:10:25.247Z,12.65
2019-03-09T13:12:51.822Z,12.55
2019-03-09T13:15:18.447Z,12.47
2019-03-09T13:17:45.029Z,12.39
2019-03-09T13:20:11.601Z,12.27
2019-03-09T13:22:38.211Z,12.19
2019-03-09T13:25:04.781Z,12.15
2019-03-09T13:27:31.393Z,12.09
2019-03-09T13:29:57.963Z,12.05
2019-03-09T13:32:24.645Z,12.00
2019-03-09T13:34:51.217Z,12.04
2019-03-09T13:37:17.801Z,12.05
2019-03-09T13:39:44.380Z,12.04
2019-03-09T13:42:10.954Z,12.01
2019-03-09T13:44:37.567Z,11.96
2019-03-09T13:47:04.489Z,11.88
2019-03-09T13:49:31.212Z,11.73
2019-03-09T13:51:57.785Z,11.52
2019-03-09T13:54:24.380Z,11.41
2019-03-09T13:56:51.128Z,11.39
2019-03-09T13:59:18.099Z,11.35
2019-03-09T14:01:44.675Z,11.33
2019-03-09T14:04:11.274Z,11.45
2019-03-09T14:06:37.862Z,11.66
2019-03-09T14:09:04.482Z,13.11
2019-03-09T14:11:31.062Z,16.01
2019-03-09T14:13:57.685Z,19.34
2019-03-09T14:16:24.286Z,21.30
2019-03-09T14:18:50.911Z,22.39
2019-03-09T14:21:17.485Z,21.73
2019-03-09T14:23:44.083Z,20.20
2019-03-09T14:26:10.669Z,18.66
2019-03-09T14:28:37.271Z,17.44
2019-03-09T14:31:03.848Z,16.57
2019-03-09T14:33:30.452Z,17.12
2019-03-09T14:35:57.049Z,17.00
2019-03-09T14:38:23.700Z,17.52
2019-03-09T14:40:50.276Z,17.30
2019-03-09T14:43:16.927Z,17.47
2019-03-09T14:45:43.503Z,16.87
2019-03-09T14:48:10.126Z,17.14
2019-03-09T14:50:36.708Z,17.89
2019-03-09T14:53:03.310Z,18.96
2019-03-09T14:55:29.905Z,19.95
2019-03-09T14:57:56.510Z,21.41
2019-03-09T15:00:23.096Z,22.19
2019-03-09T15:02:49.665Z,22.34
2019-03-09T15:05:16.248Z,22.55
2019-03-09T15:07:42.812Z,21.37
2019-03-09T15:10:09.388Z,22.16
2019-03-09T15:12:35.972Z,21.42
2019-03-09T15:15:02.563Z,20.82
2019-03-09T15:17:29.176Z,20.71
2019-03-09T15:19:55.818Z,20.37
2019-03-09T15:22:22.395Z,20.61
2019-03-09T15:24:48.974Z,21.95
2019-03-09T15:27:15.541Z,22.72
2019-03-09T15:29:42.164Z,23.65
2019-03-09T15:32:08.757Z,23.63
2019-03-09T15:34:35.329Z,22.91
2019-03-09T15:37:01.926Z,22.34
2019-03-09T15:39:28.503Z,21.05
2019-03-09T15:41:55.078Z,19.64
2019-03-09T15:44:21.732Z,18.32
2019-03-09T15:46:48.323Z,17.20
2019-03-09T15:49:14.894Z,16.28
2019-03-09T15:51:41.467Z,15.51
2019-03-09T15:54:08.037Z,14.88
2019-03-09T15:56:34.693Z,14.34
2019-03-09T15:59:01.308Z,13.98
2019-03-09T16:01:27.878Z,13.61
2019-03-09T16:03:54.479Z,13.32
2019-03-09T16:06:21.054Z,13.07
2019-03-09T16:08:47.651Z,12.86
2019-03-09T16:11:14.224Z,12.66
2019-03-09T16:13:40.846Z,12.50
2019-03-09T16:16:07.415Z,12.34
2019-03-09T16:18:34.026Z,12.18
2019-03-09T16:21:00.599Z,12.04
2019-03-09T16:23:27.520Z,11.93
2019-03-09T16:25:54.134Z,11.83
2019-03-09T16:28:20.703Z,11.74
2019-03-09T16:30:47.282Z,11.67
2019-03-09T16:33:13.863Z,11.60
2019-03-09T16:35:42.442Z,11.53
2019-03-09T16:38:09.020Z,11.45
2019-03-09T16:40:40.496Z,11.41
2019-03-09T16:43:03.918Z,11.34
2019-03-09T16:45:30.486Z,11.29
2019-03-09T16:47:57.158Z,11.25
2019-03-09T16:50:23.741Z,11.21
2019-03-09T16:52:50.312Z,11.18
2019-03-09T16:55:16.911Z,11.16
2019-03-09T16:57:43.486Z,11.13
2019-03-09T17:00:10.272Z,11.09
2019-03-09T17:02:36.849Z,11.06
2019-03-09T17:05:03.467Z,11.01
2019-03-09T17:07:31.274Z,10.98
2019-03-09T17:09:57.945Z,10.95
2019-03-09T17:12:24.534Z,10.91
2019-03-09T17:14:51.142Z,10.89
2019-03-09T17:17:17.711Z,10.90
2019-03-09T17:19:45.846Z,10.90
2019-03-09T17:22:12.458Z,10.90
2019-03-09T17:24:39.039Z,10.90
2019-03-09T17:27:05.626Z,10.90
2019-03-09T17:29:32.249Z,10.89
2019-03-09T17:31:58.822Z,10.87
2019-03-09T17:34:25.420Z,10.85
2019-03-09T17:36:51.986Z,10.86
2019-03-09T17:39:18.596Z,10.84
2019-03-09T17:41:45.165Z,10.86
2019-03-09T17:44:11.771Z,10.86
2019-03-09T17:46:38.351Z,10.85
2019-03-09T17:49:04.930Z,10.86
2019-03-09T17:51:31.511Z,10.84
2019-03-09T17:53:58.184Z,10.84
2019-03-09T17:56:24.762Z,10.82
2019-03-09T17:58:51.332Z,10.80
2019-03-09T18:01:17.921Z,10.78
2019-03-09T18:03:44.500Z,10.75
2019-03-09T18:06:11.125Z,10.75
2019-03-09T18:08:37.713Z,10.71
2019-03-09T18:11:04.289Z,10.67
2019-03-09T18:13:30.873Z,10.65
2019-03-09T18:15:57.453Z,10.63
2019-03-09T18:18:24.030Z,10.60
2019-03-09T18:20:50.610Z,10.57
2019-03-09T18:23:17.180Z,10.54
2019-03-09T18:25:43.762Z,10.51
2019-03-09T18:28:10.333Z,10.49
2019-03-09T18:30:36.911Z,10.48
2019-03-09T18:33:03.493Z,10.49
2019-03-09T18:35:30.073Z,10.51
2019-03-09T18:37:56.661Z,10.52
2019-03-09T18:40:23.244Z,10.54
2019-03-09T18:42:49.808Z,10.55
2019-03-09T18:45:16.426Z,10.55
2019-03-09T18:47:43.001Z,10.56
2019-03-09T18:50:09.620Z,10.58
2019-03-09T18:52:36.187Z,10.59
2019-03-09T18:55:02.781Z,10.60
2019-03-09T18:57:29.361Z,10.63
2019-03-09T18:59:56.454Z,10.65
2019-03-09T19:02:23.035Z,10.68
2019-03-09T19:04:49.645Z,10.69
2019-03-09T19:07:16.482Z,10.72
2019-03-09T19:09:43.106Z,10.73
2019-03-09T19:12:09.678Z,10.72
2019-03-09T19:14:36.244Z,10.71
2019-03-09T19:17:02.844Z,10.69
2019-03-09T19:19:29.403Z,10.70
2019-03-09T19:21:55.976Z,10.71
2019-03-09T19:24:22.544Z,10.71
2019-03-09T19:26:49.120Z,10.72
2019-03-09T19:29:15.773Z,10.74
2019-03-09T19:31:42.347Z,10.74
2019-03-09T19:34:09.001Z,10.75
2019-03-09T19:36:35.578Z,10.76
2019-03-09T19:39:02.177Z,10.76
2019-03-09T19:41:28.751Z,10.78
2019-03-09T19:43:55.321Z,10.77
2019-03-09T19:46:21.898Z,10.77
2019-03-09T19:48:48.467Z,10.76
2019-03-09T19:51:15.091Z,10.78
2019-03-09T19:53:41.657Z,10.79
2019-03-09T19:56:08.245Z,10.79
2019-03-09T19:58:34.824Z,10.80
2019-03-09T20:01:01.398Z,10.83
2019-03-09T20:03:27.971Z,10.85
2019-03-09T20:05:54.553Z,10.87
2019-03-09T20:08:21.132Z,10.87
2019-03-09T20:10:47.698Z,10.87
2019-03-09T20:13:14.276Z,10.83
2019-03-09T20:15:40.859Z,10.76
2019-03-09T20:18:07.434Z,10.61
2019-03-09T20:20:34.019Z,10.41
2019-03-09T20:23:00.583Z,10.21
2019-03-09T20:25:28.567Z,9.98
2019-03-09T20:27:55.312Z,9.84
2019-03-09T20:30:21.884Z,9.67
2019-03-09T20:32:48.465Z,9.55
2019-03-09T20:35:15.089Z,9.47
2019-03-09T20:37:41.737Z,9.38
2019-03-09T20:40:08.348Z,9.32
2019-03-09T20:42:34.986Z,9.29
2019-03-09T20:45:01.556Z,9.27
2019-03-09T20:47:28.196Z,9.25
2019-03-09T20:49:54.765Z,9.26
2019-03-09T20:52:21.393Z,9.26
2019-03-09T20:54:47.968Z,9.29
2019-03-09T20:57:14.562Z,9.33
2019-03-09T20:59:41.138Z,9.37
2019-03-09T21:02:07.753Z,9.44
2019-03-09T21:04:34.333Z,9.49
2019-03-09T21:07:00.941Z,9.55
2019-03-09T21:09:27.535Z,9.61
2019-03-09T21:11:54.129Z,9.68
2019-03-09T21:14:20.699Z,9.74
2019-03-09T21:16:47.913Z,9.82
2019-03-09T21:19:14.485Z,9.87
2019-03-09T21:21:41.079Z,9.91
2019-03-09T21:24:07.651Z,9.98
2019-03-09T21:26:34.247Z,10.04
2019-03-09T21:29:00.824Z,10.09
2019-03-09T21:31:27.449Z,10.13
2019-03-09T21:33:54.022Z,10.15
2019-03-09T21:36:20.610Z,10.17
2019-03-09T21:38:47.187Z,10.19
2019-03-09T21:41:13.795Z,10.22
2019-03-09T21:43:40.371Z,10.22
2019-03-09T21:46:06.985Z,10.24
2019-03-09T21:48:33.568Z,10.26
2019-03-09T21:51:00.162Z,10.28
2019-03-09T21:53:26.742Z,10.26
2019-03-09T21:55:53.332Z,10.21
2019-03-09T21:58:19.913Z,10.15
2019-03-09T22:00:46.479Z,10.06
2019-03-09T22:03:13.078Z,9.96
2019-03-09T22:05:39.656Z,9.89
2019-03-09T22:08:06.239Z,9.80
2019-03-09T22:10:32.806Z,9.73
2019-03-09T22:12:59.379Z,9.67
2019-03-09T22:15:26.069Z,9.63
2019-03-09T22:17:52.649Z,9.61
2019-03-09T22:20:20.648Z,9.58
2019-03-09T22:22:47.373Z,9.56
2019-03-09T22:25:14.160Z,9.50
2019-03-09T22:27:48.638Z,9.46
2019-03-09T22:30:16.868Z,9.41
2019-03-09T22:32:43.446Z,9.35
2019-03-09T22:35:10.023Z,9.29
2019-03-09T22:37:36.601Z,9.22
2019-03-09T22:40:03.181Z,9.15
2019-03-09T22:42:29.771Z,9.08
2019-03-09T22:44:56.360Z,9.00
2019-03-09T22:47:22.914Z,8.90
2019-03-09T22:49:49.503Z,8.84
2019-03-09T22:52:16.118Z,8.77
2019-03-09T22:54:42.727Z,8.69
2019-03-09T22:57:09.313Z,8.63
2019-03-09T22:59:35.882Z,8.57
2019-03-09T23:02:02.496Z,8.54
2019-03-09T23:04:29.069Z,8.51
2019-03-09T23:06:55.659Z,8.48
2019-03-09T23:09:22.269Z,8.45
2019-03-09T23:11:48.858Z,8.43
2019-03-09T23:14:15.443Z,8.46
2019-03-09T23:16:42.050Z,8.55
2019-03-09T23:19:08.617Z,8.64
2019-03-09T23:21:36.283Z,8.73
2019-03-09T23:24:02.858Z,8.81
2019-03-09T23:26:29.460Z,8.87
2019-03-09T23:28:56.020Z,8.89
2019-03-09T23:31:22.592Z,8.92
2019-03-09T23:33:49.169Z,8.92
2019-03-09T23:36:15.740Z,8.88
2019-03-09T23:38:42.312Z,8.88
2019-03-09T23:41:08.882Z,8.85
2019-03-09T23:43:35.464Z,8.79
2019-03-09T23:46:02.039Z,8.75
2019-03-09T23:48:28.619Z,8.69
2019-03-09T23:50:55.187Z,8.64
2019-03-09T23:53:21.778Z,8.60
2019-03-09T23:55:48.353Z,8.57
2019-03-09T23:58:14.954Z,8.54
